createdAt,value
2022-07-29T00:01:26.164Z,23.90
2022-07-29T00:03:55.725Z,23.90
2022-07-29T00:06:23.897Z,23.90
2022-07-29T00:08:52.067Z,23.90
2022-07-29T00:11:21.528Z,23.90
2022-07-29T00:13:51.122Z,23.90
2022-07-29T00:16:19.445Z,23.90
2022-07-29T00:18:47.631Z,23.90
2022-07-29T00:21:15.752Z,23.90
2022-07-29T00:23:44.022Z,23.90
2022-07-29T00:26:12.244Z,23.90
2022-07-29T00:28:41.704Z,23.90
2022-07-29T00:31:10.079Z,24.00
2022-07-29T00:33:38.323Z,23.90
2022-07-29T00:36:06.083Z,23.90
2022-07-29T00:38:34.195Z,23.80
2022-07-29T00:41:02.348Z,23.80
2022-07-29T00:43:30.730Z,23.80
2022-07-29T00:46:00.256Z,23.70
2022-07-29T00:48:28.435Z,23.70
2022-07-29T00:50:58.080Z,23.70
2022-07-29T00:53:27.599Z,23.70
2022-07-29T00:55:56.802Z,23.70
2022-07-29T00:58:25.381Z,23.70
2022-07-29T01:00:54.097Z,23.70
2022-07-29T01:03:23.632Z,23.80
2022-07-29T01:05:52.164Z,23.80
2022-07-29T01:08:22.317Z,23.80
2022-07-29T01:10:51.275Z,23.80
2022-07-29T01:13:19.953Z,23.80
2022-07-29T01:15:53.946Z,23.80
2022-07-29T01:18:31.680Z,23.80
2022-07-29T01:21:29.993Z,23.80
2022-07-29T01:24:35.811Z,23.70
2022-07-29T01:27:16.358Z,23.70
2022-07-29T01:29:54.975Z,23.50
2022-07-29T01:32:29.596Z,23.50
2022-07-29T01:35:04.259Z,23.40
2022-07-29T01:37:38.494Z,23.30
2022-07-29T01:40:10.590Z,23.30
2022-07-29T01:42:44.160Z,23.40
2022-07-29T01:45:17.487Z,23.30
2022-07-29T01:47:56.454Z,23.30
2022-07-29T01:50:32.303Z,23.30
2022-07-29T01:53:07.124Z,23.30
2022-07-29T01:55:41.199Z,23.30
2022-07-29T01:58:11.002Z,23.20
2022-07-29T02:00:43.870Z,23.20
2022-07-29T02:03:14.088Z,23.20
2022-07-29T02:05:54.939Z,23.20
2022-07-29T02:08:25.295Z,23.20
2022-07-29T02:10:54.740Z,23.20
2022-07-29T02:13:24.405Z,23.20
2022-07-29T02:15:55.959Z,23.20
2022-07-29T02:18:27.258Z,23.20
2022-07-29T02:20:58.823Z,23.20
2022-07-29T02:23:28.212Z,23.20
2022-07-29T02:25:59.361Z,23.10
2022-07-29T02:28:30.541Z,23.10
2022-07-29T02:31:04.892Z,23.10
2022-07-29T02:33:34.386Z,23.00
2022-07-29T02:36:03.854Z,22.90
2022-07-29T02:38:51.099Z,22.70
2022-07-29T02:41:24.970Z,22.50
2022-07-29T02:44:10.404Z,22.30
2022-07-29T02:46:45.685Z,22.30
2022-07-29T02:49:20.301Z,22.20
2022-07-29T02:51:54.969Z,22.10
2022-07-29T02:54:28.232Z,22.00
2022-07-29T02:56:58.145Z,21.90
2022-07-29T02:59:29.776Z,21.80
2022-07-29T03:02:01.163Z,21.70
2022-07-29T03:04:31.096Z,21.50
2022-07-29T03:07:02.649Z,21.40
2022-07-29T03:09:32.649Z,21.30
2022-07-29T03:12:01.789Z,21.10
2022-07-29T03:14:30.604Z,21.00
2022-07-29T03:17:01.594Z,20.90
2022-07-29T03:19:29.896Z,20.80
2022-07-29T03:21:58.891Z,20.70
2022-07-29T03:24:28.943Z,20.70
2022-07-29T03:26:57.682Z,20.60
2022-07-29T03:29:33.039Z,20.50
2022-07-29T03:32:07.232Z,20.40
2022-07-29T03:34:48.430Z,20.40
2022-07-29T03:37:16.508Z,20.40
2022-07-29T03:39:46.274Z,20.40
2022-07-29T03:42:17.356Z,20.40
2022-07-29T03:44:49.562Z,20.40
2022-07-29T03:47:23.269Z,20.40
2022-07-29T03:50:14.168Z,20.40
2022-07-29T03:52:43.026Z,20.50
2022-07-29T03:55:14.006Z,20.50
2022-07-29T03:57:44.064Z,20.50
2022-07-29T04:00:13.174Z,20.60
2022-07-29T04:02:46.005Z,20.60
2022-07-29T04:05:14.932Z,20.60
2022-07-29T04:07:45.245Z,20.70
2022-07-29T04:10:13.412Z,20.70
2022-07-29T04:12:41.625Z,20.70
2022-07-29T04:15:10.767Z,20.70
2022-07-29T04:17:39.118Z,20.70
2022-07-29T04:20:10.039Z,20.80
2022-07-29T04:22:38.166Z,20.80
2022-07-29T04:25:06.915Z,20.70
2022-07-29T04:27:35.124Z,20.70
2022-07-29T04:30:03.230Z,20.60
2022-07-29T04:32:31.352Z,20.60
2022-07-29T04:34:59.447Z,20.60
2022-07-29T04:37:28.999Z,20.60
2022-07-29T04:39:57.089Z,20.50
2022-07-29T04:42:27.718Z,20.40
2022-07-29T04:44:57.673Z,20.30
2022-07-29T04:47:31.527Z,20.20
2022-07-29T04:49:59.925Z,20.10
2022-07-29T04:52:29.404Z,20.00
2022-07-29T04:54:57.534Z,19.90
2022-07-29T04:57:25.640Z,19.80
2022-07-29T04:59:53.810Z,19.60
2022-07-29T05:02:22.910Z,19.50
2022-07-29T05:04:51.175Z,19.40
2022-07-29T05:07:19.455Z,19.30
2022-07-29T05:09:48.936Z,19.20
2022-07-29T05:12:17.166Z,19.10
2022-07-29T05:14:45.268Z,19.00
2022-07-29T05:17:13.650Z,19.00
2022-07-29T05:19:41.766Z,19.00
2022-07-29T05:22:09.877Z,18.90
2022-07-29T05:24:38.315Z,18.90
2022-07-29T05:27:07.922Z,18.90
2022-07-29T05:29:44.127Z,18.90
2022-07-29T05:32:14.295Z,18.90
2022-07-29T05:34:50.049Z,18.90
2022-07-29T05:37:20.013Z,18.90
2022-07-29T05:39:56.412Z,18.90
2022-07-29T05:42:27.226Z,19.00
2022-07-29T05:44:55.579Z,19.10
2022-07-29T05:47:24.230Z,19.10
2022-07-29T05:49:52.661Z,19.20
2022-07-29T05:52:21.056Z,19.10
2022-07-29T05:54:49.345Z,19.20
2022-07-29T05:57:18.851Z,19.20
2022-07-29T05:59:48.430Z,19.20
2022-07-29T06:02:17.310Z,19.20
2022-07-29T06:04:46.001Z,19.30
2022-07-29T06:07:14.250Z,19.30
2022-07-29T06:09:42.367Z,19.40
2022-07-29T06:12:11.223Z,19.40
2022-07-29T06:14:39.791Z,19.40
2022-07-29T06:17:09.354Z,19.40
2022-07-29T06:19:37.777Z,19.50
2022-07-29T06:22:06.535Z,19.60
2022-07-29T06:24:34.753Z,19.70
2022-07-29T06:27:02.873Z,19.70
2022-07-29T06:29:31.772Z,19.80
2022-07-29T06:31:59.859Z,19.90
2022-07-29T06:34:29.415Z,20.00
2022-07-29T06:36:57.510Z,20.10
2022-07-29T06:39:25.598Z,20.10
2022-07-29T06:41:54.985Z,20.20
2022-07-29T06:44:23.150Z,20.30
2022-07-29T06:46:52.601Z,20.40
2022-07-29T06:49:20.795Z,20.40
2022-07-29T06:51:50.353Z,20.50
2022-07-29T06:54:18.640Z,20.50
2022-07-29T06:56:47.714Z,20.50
2022-07-29T06:59:15.862Z,20.60
2022-07-29T07:01:45.724Z,20.60
2022-07-29T07:04:14.585Z,20.70
2022-07-29T07:06:43.296Z,20.70
2022-07-29T07:09:12.781Z,20.80
2022-07-29T07:11:40.901Z,20.90
2022-07-29T07:14:09.016Z,21.00
2022-07-29T07:16:37.232Z,21.10
2022-07-29T07:19:05.522Z,21.20
2022-07-29T07:21:35.258Z,21.40
2022-07-29T07:24:04.379Z,21.50
2022-07-29T07:26:34.082Z,21.60
2022-07-29T07:29:02.469Z,21.70
2022-07-29T07:31:30.736Z,21.90
2022-07-29T07:33:59.149Z,22.00
2022-07-29T07:36:27.358Z,22.20
2022-07-29T07:38:55.671Z,22.40
2022-07-29T07:41:24.095Z,22.60
2022-07-29T07:43:53.580Z,22.70
2022-07-29T07:46:21.725Z,22.90
2022-07-29T07:48:50.003Z,23.00
2022-07-29T07:51:18.161Z,23.10
2022-07-29T07:53:50.422Z,23.20
2022-07-29T07:56:18.773Z,23.30
2022-07-29T07:58:46.869Z,23.40
2022-07-29T08:01:19.936Z,23.50
2022-07-29T08:03:48.259Z,23.70
2022-07-29T08:06:16.390Z,23.80
2022-07-29T08:08:44.505Z,23.90
2022-07-29T08:11:12.979Z,24.00
2022-07-29T08:13:41.331Z,24.10
2022-07-29T08:16:16.306Z,24.20
2022-07-29T08:18:47.500Z,24.30
2022-07-29T08:21:16.499Z,24.40
2022-07-29T08:23:59.637Z,24.60
2022-07-29T08:26:29.197Z,24.70
2022-07-29T08:28:57.324Z,24.90
2022-07-29T08:31:25.644Z,25.10
2022-07-29T08:33:57.073Z,25.30
2022-07-29T08:36:25.894Z,25.50
2022-07-29T08:38:54.074Z,25.70
2022-07-29T08:41:22.428Z,25.80
2022-07-29T08:43:51.993Z,26.00
2022-07-29T08:46:20.820Z,26.10
2022-07-29T08:48:49.559Z,26.10
2022-07-29T08:51:21.174Z,26.20
2022-07-29T08:53:51.646Z,26.20
2022-07-29T08:56:21.383Z,26.30
2022-07-29T08:58:51.769Z,26.40
2022-07-29T09:01:35.667Z,26.50
2022-07-29T09:04:08.005Z,26.70
2022-07-29T09:06:41.400Z,26.80
2022-07-29T09:09:10.514Z,26.90
2022-07-29T09:11:38.941Z,26.90
2022-07-29T09:14:07.105Z,26.90
2022-07-29T09:16:55.982Z,26.80
2022-07-29T09:19:26.630Z,26.80
2022-07-29T09:22:00.025Z,26.70
2022-07-29T09:24:37.777Z,26.70
2022-07-29T09:27:11.472Z,26.70
2022-07-29T09:29:40.080Z,26.90
2022-07-29T09:32:11.559Z,27.10
2022-07-29T09:34:39.987Z,27.40
2022-07-29T09:37:09.669Z,27.60
2022-07-29T09:39:46.429Z,27.90
2022-07-29T09:42:16.701Z,28.20
2022-07-29T09:44:46.985Z,28.30
2022-07-29T09:47:15.189Z,28.50
2022-07-29T09:49:55.131Z,28.60
2022-07-29T09:52:24.580Z,28.70
2022-07-29T09:54:54.948Z,28.80
2022-07-29T09:57:30.812Z,28.90
2022-07-29T10:00:01.184Z,29.00
2022-07-29T10:02:33.674Z,29.10
2022-07-29T10:05:02.743Z,29.30
2022-07-29T10:07:50.488Z,29.40
2022-07-29T10:10:24.085Z,29.60
2022-07-29T10:12:55.035Z,29.80
2022-07-29T10:15:25.065Z,30.00
2022-07-29T10:17:54.021Z,30.20
2022-07-29T10:20:22.978Z,30.40
2022-07-29T10:22:54.433Z,30.50
2022-07-29T10:25:23.422Z,30.70
2022-07-29T10:27:53.204Z,30.90
2022-07-29T10:30:22.632Z,31.10
2022-07-29T10:33:22.400Z,31.30
2022-07-29T10:36:10.039Z,31.50
2022-07-29T10:38:57.702Z,31.70
2022-07-29T10:41:47.638Z,32.00
2022-07-29T10:44:19.445Z,32.10
2022-07-29T10:46:51.977Z,32.20
2022-07-29T10:49:24.820Z,32.40
2022-07-29T10:51:59.122Z,32.60
2022-07-29T10:54:56.378Z,32.60
2022-07-29T10:57:54.128Z,32.90
2022-07-29T11:00:32.452Z,33.20
2022-07-29T11:03:04.732Z,33.50
2022-07-29T11:05:55.133Z,33.70
2022-07-29T11:08:27.991Z,33.80
2022-07-29T11:11:51.842Z,34.00
2022-07-29T11:14:57.755Z,34.20
2022-07-29T11:17:26.186Z,34.30
2022-07-29T11:20:36.543Z,34.40
2022-07-29T11:23:21.825Z,34.30
2022-07-29T11:26:26.082Z,34.30
2022-07-29T11:29:03.227Z,34.40
2022-07-29T11:31:36.626Z,34.40
2022-07-29T11:34:21.852Z,34.40
2022-07-29T11:37:18.211Z,34.50
2022-07-29T11:40:09.983Z,34.50
2022-07-29T11:42:44.540Z,34.60
2022-07-29T11:45:44.230Z,34.70
2022-07-29T11:50:52.528Z,34.90
2022-07-29T11:53:22.880Z,35.00
2022-07-29T11:55:59.642Z,35.20
2022-07-29T11:58:29.512Z,35.30
2022-07-29T12:00:58.860Z,35.50
2022-07-29T12:03:35.995Z,35.60
2022-07-29T12:06:07.375Z,35.60
2022-07-29T12:07:03.341Z,34.80
2022-07-29T12:08:43.525Z,35.60
2022-07-29T12:11:20.519Z,35.60
2022-07-29T12:13:49.433Z,35.70
2022-07-29T12:16:25.359Z,35.70
2022-07-29T12:18:59.377Z,35.70
2022-07-29T12:21:28.846Z,35.70
2022-07-29T12:24:05.866Z,35.70
2022-07-29T12:26:38.098Z,35.80
2022-07-29T12:29:14.761Z,35.80
2022-07-29T12:31:45.582Z,35.80
2022-07-29T12:34:14.822Z,35.90
2022-07-29T12:36:43.897Z,36.00
2022-07-29T12:39:13.610Z,36.10
2022-07-29T12:41:41.768Z,36.10
2022-07-29T12:44:10.024Z,36.10
2022-07-29T12:46:38.309Z,36.10
2022-07-29T12:49:07.873Z,36.20
2022-07-29T12:51:38.418Z,36.20
2022-07-29T12:54:09.374Z,36.20
2022-07-29T12:56:43.697Z,36.30
2022-07-29T12:59:17.836Z,36.30
2022-07-29T13:01:48.051Z,36.30
2022-07-29T13:04:28.103Z,36.30
2022-07-29T13:07:07.463Z,36.40
2022-07-29T13:09:40.567Z,36.60
2022-07-29T13:12:11.547Z,36.70
2022-07-29T13:14:41.139Z,36.70
2022-07-29T13:17:11.368Z,36.80
2022-07-29T13:19:41.493Z,36.80
2022-07-29T13:22:10.261Z,36.80
2022-07-29T13:24:48.307Z,36.90
2022-07-29T13:27:18.676Z,36.90
2022-07-29T13:29:47.435Z,37.10
2022-07-29T13:32:15.979Z,37.20
2022-07-29T13:34:44.055Z,37.30
2022-07-29T13:37:12.609Z,37.30
2022-07-29T13:39:41.497Z,37.30
2022-07-29T13:42:11.082Z,37.10
2022-07-29T13:44:40.711Z,37.00
2022-07-29T13:47:09.756Z,36.80
2022-07-29T13:49:37.899Z,36.60
2022-07-29T13:52:08.318Z,36.50
2022-07-29T13:54:42.128Z,36.40
2022-07-29T13:57:12.041Z,36.20
2022-07-29T13:59:42.859Z,36.00
2022-07-29T14:02:13.197Z,35.90
2022-07-29T14:04:44.049Z,35.80
2022-07-29T14:07:16.207Z,35.60
2022-07-29T14:09:44.760Z,35.50
2022-07-29T14:12:13.291Z,35.30
2022-07-29T14:14:43.007Z,35.20
2022-07-29T14:17:11.423Z,35.10
2022-07-29T14:19:39.912Z,35.00
2022-07-29T14:22:09.486Z,34.90
2022-07-29T14:24:39.579Z,34.70
2022-07-29T14:27:09.058Z,34.60
2022-07-29T14:29:38.802Z,34.50
2022-07-29T14:32:09.971Z,34.30
2022-07-29T14:34:38.538Z,34.20
2022-07-29T14:37:07.302Z,34.10
2022-07-29T14:39:42.147Z,34.00
2022-07-29T14:42:12.431Z,33.90
2022-07-29T14:44:42.248Z,33.80
2022-07-29T14:47:12.133Z,33.70
2022-07-29T14:49:40.302Z,33.60
2022-07-29T14:52:08.464Z,33.60
2022-07-29T14:54:36.558Z,33.50
2022-07-29T14:57:04.720Z,33.40
2022-07-29T14:59:32.797Z,33.40
2022-07-29T15:02:01.634Z,33.30
2022-07-29T15:04:31.440Z,33.30
2022-07-29T15:06:59.903Z,33.30
2022-07-29T15:09:28.072Z,33.20
2022-07-29T15:11:56.744Z,33.10
2022-07-29T15:14:25.080Z,33.10
2022-07-29T15:16:53.410Z,33.10
2022-07-29T15:19:21.618Z,33.00
2022-07-29T15:21:51.115Z,32.90
2022-07-29T15:24:19.594Z,32.90
2022-07-29T15:26:48.178Z,32.80
2022-07-29T15:29:16.820Z,32.70
2022-07-29T15:31:45.225Z,32.70
2022-07-29T15:34:13.360Z,32.60
2022-07-29T15:36:51.880Z,32.60
2022-07-29T15:39:22.780Z,32.50
2022-07-29T15:41:51.325Z,32.40
2022-07-29T15:44:19.750Z,32.30
2022-07-29T15:47:05.614Z,32.20
2022-07-29T15:49:47.644Z,32.10
2022-07-29T15:52:26.156Z,31.90
2022-07-29T15:54:57.595Z,31.70
2022-07-29T15:57:26.115Z,31.50
2022-07-29T15:59:54.284Z,31.30
2022-07-29T16:02:22.426Z,31.10
2022-07-29T16:04:50.610Z,30.90
2022-07-29T16:07:18.978Z,30.70
2022-07-29T16:09:51.014Z,30.60
2022-07-29T16:12:22.595Z,30.50
2022-07-29T16:14:52.054Z,30.30
2022-07-29T16:17:20.793Z,30.20
2022-07-29T16:19:49.729Z,30.10
2022-07-29T16:22:17.843Z,30.00
2022-07-29T16:24:45.940Z,29.80
2022-07-29T16:27:16.151Z,29.70
2022-07-29T16:29:46.795Z,29.60
2022-07-29T16:32:15.077Z,29.50
2022-07-29T16:34:50.534Z,29.50
2022-07-29T16:37:18.780Z,29.40
2022-07-29T16:39:46.883Z,29.30
2022-07-29T16:42:36.669Z,29.30
2022-07-29T16:45:04.994Z,29.30
2022-07-29T16:47:33.440Z,29.40
2022-07-29T16:50:02.234Z,29.50
2022-07-29T16:52:30.382Z,29.50
2022-07-29T16:54:58.544Z,29.70
2022-07-29T16:57:26.699Z,29.80
2022-07-29T16:59:54.814Z,29.80
2022-07-29T17:02:24.414Z,29.90
2022-07-29T17:04:52.554Z,30.00
2022-07-29T17:07:20.620Z,30.00
2022-07-29T17:09:52.634Z,30.00
2022-07-29T17:12:23.275Z,30.10
2022-07-29T17:14:51.476Z,30.10
2022-07-29T17:17:20.877Z,30.10
2022-07-29T17:20:10.280Z,30.10
2022-07-29T17:22:40.269Z,30.10
2022-07-29T17:25:10.012Z,30.10
2022-07-29T17:27:38.447Z,30.10
2022-07-29T17:30:08.396Z,30.00
2022-07-29T17:32:38.763Z,30.00
2022-07-29T17:35:29.724Z,30.00
2022-07-29T17:37:58.263Z,29.90
2022-07-29T17:40:26.685Z,29.80
2022-07-29T17:42:54.796Z,29.80
2022-07-29T17:45:22.956Z,29.70
2022-07-29T17:47:51.209Z,29.60
2022-07-29T17:50:20.778Z,29.50
2022-07-29T17:52:48.846Z,29.40
2022-07-29T17:55:16.973Z,29.30
2022-07-29T17:57:45.098Z,29.20
2022-07-29T18:00:13.797Z,29.10
2022-07-29T18:02:41.964Z,29.00
2022-07-29T18:05:10.404Z,28.90
2022-07-29T18:07:39.882Z,28.70
2022-07-29T18:10:08.496Z,28.70
2022-07-29T18:12:36.767Z,28.60
2022-07-29T18:15:05.845Z,28.50
2022-07-29T18:17:52.762Z,28.40
2022-07-29T18:20:22.095Z,28.30
2022-07-29T18:22:51.571Z,28.20
2022-07-29T18:25:19.896Z,28.10
2022-07-29T18:27:48.009Z,27.90
2022-07-29T18:30:16.147Z,27.80
2022-07-29T18:33:05.030Z,27.50
2022-07-29T18:35:33.764Z,27.30
2022-07-29T18:38:03.531Z,27.10
2022-07-29T18:40:32.040Z,26.90
2022-07-29T18:43:00.230Z,26.80
2022-07-29T18:45:29.005Z,26.70
2022-07-29T18:47:57.523Z,26.70
2022-07-29T18:50:29.362Z,26.70
2022-07-29T18:52:58.953Z,26.70
2022-07-29T18:55:28.768Z,26.70
2022-07-29T18:57:57.555Z,26.60
2022-07-29T19:00:27.097Z,26.60
2022-07-29T19:02:55.413Z,26.50
2022-07-29T19:05:24.121Z,26.40
2022-07-29T19:07:52.291Z,26.40
2022-07-29T19:10:20.443Z,26.40
2022-07-29T19:12:50.004Z,26.40
2022-07-29T19:15:20.083Z,26.40
2022-07-29T19:17:48.990Z,26.30
2022-07-29T19:20:17.545Z,26.40
2022-07-29T19:22:45.688Z,26.40
2022-07-29T19:25:13.880Z,26.40
2022-07-29T19:27:43.331Z,26.40
2022-07-29T19:30:13.511Z,26.40
2022-07-29T19:32:41.625Z,26.40
2022-07-29T19:35:25.378Z,26.50
2022-07-29T19:37:53.939Z,26.50
2022-07-29T19:40:22.590Z,26.50
2022-07-29T19:42:51.753Z,26.40
2022-07-29T19:45:21.743Z,26.40
2022-07-29T19:47:50.224Z,26.30
2022-07-29T19:50:18.942Z,26.20
2022-07-29T19:52:48.131Z,26.10
2022-07-29T19:55:16.614Z,26.00
2022-07-29T19:57:47.833Z,25.90
2022-07-29T20:00:16.634Z,25.80
2022-07-29T20:02:46.253Z,25.70
2022-07-29T20:05:14.431Z,25.60
2022-07-29T20:07:42.547Z,25.50
2022-07-29T20:10:11.776Z,25.40
2022-07-29T20:12:42.560Z,25.20
2022-07-29T20:15:14.786Z,25.10
2022-07-29T20:17:46.153Z,25.00
2022-07-29T20:20:14.235Z,24.90
2022-07-29T20:22:42.894Z,24.80
2022-07-29T20:25:11.962Z,24.60
2022-07-29T20:27:40.650Z,24.50
2022-07-29T20:30:13.210Z,24.30
2022-07-29T20:32:41.591Z,24.30
2022-07-29T20:35:12.128Z,24.10
2022-07-29T20:37:55.749Z,24.00
2022-07-29T20:40:25.355Z,23.90
2022-07-29T20:42:53.591Z,23.80
2022-07-29T20:45:21.864Z,23.70
2022-07-29T20:47:50.731Z,23.60
2022-07-29T20:50:24.209Z,23.50
2022-07-29T20:52:54.022Z,23.50
2022-07-29T20:55:22.468Z,23.50
2022-07-29T20:57:50.605Z,23.50
2022-07-29T21:00:19.030Z,23.50
2022-07-29T21:02:47.462Z,23.60
2022-07-29T21:05:15.894Z,23.70
2022-07-29T21:07:45.570Z,23.80
2022-07-29T21:10:14.283Z,23.80
2022-07-29T21:12:43.039Z,23.80
2022-07-29T21:15:13.509Z,23.70
2022-07-29T21:17:46.825Z,23.70
2022-07-29T21:20:15.175Z,23.60
2022-07-29T21:22:43.431Z,23.60
2022-07-29T21:25:13.592Z,23.50
2022-07-29T21:27:59.252Z,23.50
2022-07-29T21:30:27.430Z,23.40
2022-07-29T21:32:55.579Z,23.30
2022-07-29T21:36:01.594Z,23.30
2022-07-29T21:38:12.164Z,23.30
2022-07-29T21:40:41.639Z,23.20
2022-07-29T21:43:09.915Z,23.10
2022-07-29T21:45:38.037Z,23.10
2022-07-29T21:48:06.711Z,23.20
2022-07-29T21:50:35.053Z,23.10
2022-07-29T21:53:03.528Z,23.10
2022-07-29T21:55:33.077Z,23.10
2022-07-29T21:58:03.807Z,23.10
2022-07-29T22:00:33.839Z,23.00
2022-07-29T22:03:02.787Z,23.10
2022-07-29T22:05:31.704Z,23.00
2022-07-29T22:08:00.307Z,22.90
2022-07-29T22:10:30.573Z,22.90
2022-07-29T22:13:01.655Z,22.90
2022-07-29T22:15:31.338Z,22.90
2022-07-29T22:17:59.916Z,22.80
2022-07-29T22:20:28.219Z,22.70
2022-07-29T22:22:56.347Z,22.60
2022-07-29T22:25:24.518Z,22.60
2022-07-29T22:28:05.347Z,22.60
2022-07-29T22:30:34.858Z,22.50
2022-07-29T22:33:03.058Z,22.50
2022-07-29T22:35:31.193Z,22.50
2022-07-29T22:37:59.299Z,22.50
2022-07-29T22:40:30.735Z,22.40
2022-07-29T22:43:00.819Z,22.40
2022-07-29T22:45:29.142Z,22.40
2022-07-29T22:47:59.074Z,22.30
2022-07-29T22:50:27.799Z,22.30
2022-07-29T22:52:55.897Z,22.20
2022-07-29T22:55:24.164Z,22.20
2022-07-29T22:57:52.507Z,22.20
2022-07-29T23:00:20.624Z,22.20
2022-07-29T23:02:49.026Z,22.20
2022-07-29T23:05:26.129Z,22.20
2022-07-29T23:07:54.258Z,22.20
2022-07-29T23:10:22.862Z,22.20
2022-07-29T23:12:51.155Z,22.20
2022-07-29T23:15:19.374Z,22.30
2022-07-29T23:17:47.917Z,22.30
2022-07-29T23:20:15.989Z,22.30
2022-07-29T23:22:45.561Z,22.30
2022-07-29T23:25:13.652Z,22.30
2022-07-29T23:27:42.150Z,22.30
2022-07-29T23:30:11.672Z,22.30
2022-07-29T23:32:39.759Z,22.30
2022-07-29T23:35:09.562Z,22.20
2022-07-29T23:37:37.841Z,22.20
2022-07-29T23:40:13.662Z,22.30
2022-07-29T23:42:43.320Z,22.20
2022-07-29T23:45:12.471Z,22.30
2022-07-29T23:47:40.973Z,22.20
2022-07-29T23:50:11.999Z,22.20
2022-07-29T23:52:40.414Z,22.20
2022-07-29T23:55:37.879Z,22.20
2022-07-29T23:57:59.909Z,22.20
